sensor_id;sensor_type;location;lat;lon;timestamp;pressure;altitude;pressure_sealevel;temperature;humidity
76598;BME280;65486;53.144;18.134;2024-03-08T00:02:04;102079.58;;;-1.74;87.64
76598;BME280;65486;53.144;18.134;2024-03-08T00:04:33;102075.61;;;-1.76;87.78
76598;BME280;65486;53.144;18.134;2024-03-08T00:06:59;102072.48;;;-1.78;88.10
76598;BME280;65486;53.144;18.134;2024-03-08T00:09:28;102069.73;;;-1.80;88.38
76598;BME280;65486;53.144;18.134;2024-03-08T00:11:59;102066.09;;;-1.82;88.30
76598;BME280;65486;53.144;18.134;2024-03-08T00:14:27;102067.92;;;-1.85;88.20
76598;BME280;65486;53.144;18.134;2024-03-08T00:16:54;102072.63;;;-1.87;88.33
76598;BME280;65486;53.144;18.134;2024-03-08T00:19:22;102067.77;;;-1.90;88.38
76598;BME280;65486;53.144;18.134;2024-03-08T00:21:50;102067.09;;;-1.91;88.63
76598;BME280;65486;53.144;18.134;2024-03-08T00:24:20;102065.49;;;-1.94;88.41
76598;BME280;65486;53.144;18.134;2024-03-08T00:26:51;102070.77;;;-1.96;88.57
76598;BME280;65486;53.144;18.134;2024-03-08T00:29:20;102067.88;;;-1.99;88.86
76598;BME280;65486;53.144;18.134;2024-03-08T00:31:52;102070.25;;;-2.02;88.93
76598;BME280;65486;53.144;18.134;2024-03-08T00:34:21;102068.77;;;-2.04;89.19
76598;BME280;65486;53.144;18.134;2024-03-08T00:36:52;102067.42;;;-2.05;89.28
76598;BME280;65486;53.144;18.134;2024-03-08T00:39:18;102068.95;;;-2.06;89.16
76598;BME280;65486;53.144;18.134;2024-03-08T00:41:47;102063.23;;;-2.07;89.36
76598;BME280;65486;53.144;18.134;2024-03-08T00:44:14;102062.70;;;-2.07;89.72
76598;BME280;65486;53.144;18.134;2024-03-08T00:46:41;102062.93;;;-2.08;89.76
76598;BME280;65486;53.144;18.134;2024-03-08T00:49:11;102065.15;;;-2.08;89.77
76598;BME280;65486;53.144;18.134;2024-03-08T00:51:41;102062.46;;;-2.09;90.00
76598;BME280;65486;53.144;18.134;2024-03-08T00:54:09;102061.23;;;-2.09;89.77
76598;BME280;65486;53.144;18.134;2024-03-08T00:56:43;102059.90;;;-2.11;89.55
76598;BME280;65486;53.144;18.134;2024-03-08T00:59:13;102060.13;;;-2.11;89.56
76598;BME280;65486;53.144;18.134;2024-03-08T01:01:56;102059.66;;;-2.10;90.09
76598;BME280;65486;53.144;18.134;2024-03-08T01:04:24;102055.50;;;-2.12;89.70
76598;BME280;65486;53.144;18.134;2024-03-08T01:06:58;102053.95;;;-2.13;89.97
76598;BME280;65486;53.144;18.134;2024-03-08T01:09:26;102050.09;;;-2.15;90.34
76598;BME280;65486;53.144;18.134;2024-03-08T01:11:55;102044.45;;;-2.19;90.17
76598;BME280;65486;53.144;18.134;2024-03-08T01:14:30;102048.61;;;-2.19;90.49
76598;BME280;65486;53.144;18.134;2024-03-08T01:16:58;102045.83;;;-2.20;90.61
76598;BME280;65486;53.144;18.134;2024-03-08T01:19:29;102042.20;;;-2.22;90.39
76598;BME280;65486;53.144;18.134;2024-03-08T01:22:02;102042.82;;;-2.23;90.71
76598;BME280;65486;53.144;18.134;2024-03-08T01:24:29;102040.73;;;-2.25;90.61
76598;BME280;65486;53.144;18.134;2024-03-08T01:26:59;102037.65;;;-2.25;91.03
76598;BME280;65486;53.144;18.134;2024-03-08T01:29:25;102033.93;;;-2.23;91.36
76598;BME280;65486;53.144;18.134;2024-03-08T01:31:56;102034.65;;;-2.23;91.07
76598;BME280;65486;53.144;18.134;2024-03-08T01:34:31;102036.81;;;-2.23;91.18
76598;BME280;65486;53.144;18.134;2024-03-08T01:37:05;102030.50;;;-2.23;91.21
76598;BME280;65486;53.144;18.134;2024-03-08T01:39:54;102034.27;;;-2.20;91.59
76598;BME280;65486;53.144;18.134;2024-03-08T01:42:27;102034.70;;;-2.19;91.45
76598;BME280;65486;53.144;18.134;2024-03-08T01:44:57;102035.42;;;-2.19;91.46
76598;BME280;65486;53.144;18.134;2024-03-08T01:47:25;102030.06;;;-2.19;91.58
76598;BME280;65486;53.144;18.134;2024-03-08T01:49:52;102025.00;;;-2.19;91.68
76598;BME280;65486;53.144;18.134;2024-03-08T01:52:20;102023.41;;;-2.19;91.54
76598;BME280;65486;53.144;18.134;2024-03-08T01:54:50;102020.97;;;-2.20;91.46
76598;BME280;65486;53.144;18.134;2024-03-08T01:57:17;102016.05;;;-2.22;91.81
76598;BME280;65486;53.144;18.134;2024-03-08T01:59:46;102014.38;;;-2.24;91.62
76598;BME280;65486;53.144;18.134;2024-03-08T02:02:15;102014.46;;;-2.25;91.89
76598;BME280;65486;53.144;18.134;2024-03-08T02:04:44;102012.98;;;-2.25;92.05
76598;BME280;65486;53.144;18.134;2024-03-08T02:07:10;102011.55;;;-2.24;91.91
76598;BME280;65486;53.144;18.134;2024-03-08T02:09:44;102007.89;;;-2.24;92.64
76598;BME280;65486;53.144;18.134;2024-03-08T02:12:11;102008.64;;;-2.19;92.88
76598;BME280;65486;53.144;18.134;2024-03-08T02:14:38;102007.86;;;-2.16;92.58
76598;BME280;65486;53.144;18.134;2024-03-08T02:17:07;102008.38;;;-2.16;92.25
76598;BME280;65486;53.144;18.134;2024-03-08T02:19:34;102003.77;;;-2.14;92.52
76598;BME280;65486;53.144;18.134;2024-03-08T02:22:06;102005.14;;;-2.13;92.54
76598;BME280;65486;53.144;18.134;2024-03-08T02:24:34;102002.41;;;-2.12;92.53
76598;BME280;65486;53.144;18.134;2024-03-08T02:27:01;102000.94;;;-2.12;92.47
76598;BME280;65486;53.144;18.134;2024-03-08T02:29:28;102002.60;;;-2.13;92.22
76598;BME280;65486;53.144;18.134;2024-03-08T02:31:55;102000.23;;;-2.15;92.35
76598;BME280;65486;53.144;18.134;2024-03-08T02:34:25;101994.90;;;-2.16;92.47
76598;BME280;65486;53.144;18.134;2024-03-08T02:36:53;101995.07;;;-2.16;92.72
76598;BME280;65486;53.144;18.134;2024-03-08T02:39:24;101994.52;;;-2.18;92.42
76598;BME280;65486;53.144;18.134;2024-03-08T02:42:00;101992.79;;;-2.22;92.46
76598;BME280;65486;53.144;18.134;2024-03-08T02:44:28;101996.59;;;-2.24;92.65
76598;BME280;65486;53.144;18.134;2024-03-08T02:46:54;101992.48;;;-2.27;92.85
76598;BME280;65486;53.144;18.134;2024-03-08T02:49:22;101994.16;;;-2.31;92.82
76598;BME280;65486;53.144;18.134;2024-03-08T02:51:48;101997.39;;;-2.33;93.05
76598;BME280;65486;53.144;18.134;2024-03-08T02:54:15;101994.33;;;-2.35;93.31
76598;BME280;65486;53.144;18.134;2024-03-08T02:56:44;101993.33;;;-2.36;93.09
76598;BME280;65486;53.144;18.134;2024-03-08T02:59:10;101993.95;;;-2.38;93.07
76598;BME280;65486;53.144;18.134;2024-03-08T03:01:38;101991.46;;;-2.41;93.09
76598;BME280;65486;53.144;18.134;2024-03-08T03:04:06;101976.52;;;-2.50;93.05
76598;BME280;65486;53.144;18.134;2024-03-08T03:06:32;101988.86;;;-2.44;93.05
76598;BME280;65486;53.144;18.134;2024-03-08T03:09:10;101990.13;;;-2.47;93.23
76598;BME280;65486;53.144;18.134;2024-03-08T03:11:39;101990.67;;;-2.49;93.16
76598;BME280;65486;53.144;18.134;2024-03-08T03:14:11;101991.40;;;-2.52;93.24
76598;BME280;65486;53.144;18.134;2024-03-08T03:16:37;101988.30;;;-2.54;93.27
76598;BME280;65486;53.144;18.134;2024-03-08T03:19:05;101987.98;;;-2.54;93.45
76598;BME280;65486;53.144;18.134;2024-03-08T03:21:31;101986.81;;;-2.56;93.20
76598;BME280;65486;53.144;18.134;2024-03-08T03:23:58;101982.98;;;-2.57;93.32
76598;BME280;65486;53.144;18.134;2024-03-08T03:26:26;101981.09;;;-2.59;93.58
76598;BME280;65486;53.144;18.134;2024-03-08T03:28:55;101984.76;;;-2.60;93.51
76598;BME280;65486;53.144;18.134;2024-03-08T03:31:21;101982.30;;;-2.61;93.52
76598;BME280;65486;53.144;18.134;2024-03-08T03:33:52;101977.27;;;-2.63;93.36
76598;BME280;65486;53.144;18.134;2024-03-08T03:36:18;101981.90;;;-2.63;93.71
76598;BME280;65486;53.144;18.134;2024-03-08T03:38:44;101978.08;;;-2.62;93.51
76598;BME280;65486;53.144;18.134;2024-03-08T03:41:11;101977.42;;;-2.61;93.75
76598;BME280;65486;53.144;18.134;2024-03-08T03:43:39;101973.75;;;-2.60;94.06
76598;BME280;65486;53.144;18.134;2024-03-08T03:46:07;101976.34;;;-2.58;93.84
76598;BME280;65486;53.144;18.134;2024-03-08T03:48:33;101975.09;;;-2.58;93.96
76598;BME280;65486;53.144;18.134;2024-03-08T03:50:59;101977.29;;;-2.59;93.88
76598;BME280;65486;53.144;18.134;2024-03-08T03:53:26;101975.19;;;-2.60;93.96
76598;BME280;65486;53.144;18.134;2024-03-08T03:55:53;101974.20;;;-2.61;94.11
76598;BME280;65486;53.144;18.134;2024-03-08T03:58:25;101972.20;;;-2.61;93.99
76598;BME280;65486;53.144;18.134;2024-03-08T04:00:53;101975.45;;;-2.61;94.28
76598;BME280;65486;53.144;18.134;2024-03-08T04:03:22;101972.91;;;-2.61;94.31
76598;BME280;65486;53.144;18.134;2024-03-08T04:05:52;101972.05;;;-2.61;94.49
76598;BME280;65486;53.144;18.134;2024-03-08T04:08:19;101971.84;;;-2.61;94.83
76598;BME280;65486;53.144;18.134;2024-03-08T04:10:46;101972.36;;;-2.61;94.70
76598;BME280;65486;53.144;18.134;2024-03-08T04:13:13;101968.46;;;-2.62;94.61
76598;BME280;65486;53.144;18.134;2024-03-08T04:15:42;101974.03;;;-2.62;94.68
76598;BME280;65486;53.144;18.134;2024-03-08T04:18:11;101970.94;;;-2.61;94.87
76598;BME280;65486;53.144;18.134;2024-03-08T04:20:37;101969.08;;;-2.60;94.78
76598;BME280;65486;53.144;18.134;2024-03-08T04:23:06;101965.73;;;-2.58;95.05
76598;BME280;65486;53.144;18.134;2024-03-08T04:25:32;101966.72;;;-2.54;95.09
76598;BME280;65486;53.144;18.134;2024-03-08T04:27:59;101967.77;;;-2.51;95.17
76598;BME280;65486;53.144;18.134;2024-03-08T04:30:25;101961.92;;;-2.48;95.39
76598;BME280;65486;53.144;18.134;2024-03-08T04:32:54;101960.05;;;-2.44;95.59
76598;BME280;65486;53.144;18.134;2024-03-08T04:35:20;101959.14;;;-2.42;95.46
76598;BME280;65486;53.144;18.134;2024-03-08T04:37:46;101954.13;;;-2.39;95.62
76598;BME280;65486;53.144;18.134;2024-03-08T04:40:13;101952.55;;;-2.35;95.93
76598;BME280;65486;53.144;18.134;2024-03-08T04:42:40;101951.08;;;-2.32;95.85
76598;BME280;65486;53.144;18.134;2024-03-08T04:45:09;101953.83;;;-2.31;95.72
76598;BME280;65486;53.144;18.134;2024-03-08T04:47:45;101952.70;;;-2.30;95.78
76598;BME280;65486;53.144;18.134;2024-03-08T04:50:12;101951.61;;;-2.27;95.92
76598;BME280;65486;53.144;18.134;2024-03-08T04:52:40;101950.16;;;-2.25;96.16
76598;BME280;65486;53.144;18.134;2024-03-08T04:55:07;101949.63;;;-2.23;96.00
76598;BME280;65486;53.144;18.134;2024-03-08T04:57:34;101950.89;;;-2.20;96.07
76598;BME280;65486;53.144;18.134;2024-03-08T05:00:01;101936.42;;;-2.24;96.32
76598;BME280;65486;53.144;18.134;2024-03-08T05:02:28;101947.77;;;-2.14;96.44
76598;BME280;65486;53.144;18.134;2024-03-08T05:04:54;101946.33;;;-2.12;96.30
76598;BME280;65486;53.144;18.134;2024-03-08T05:07:25;101945.55;;;-2.09;96.27
76598;BME280;65486;53.144;18.134;2024-03-08T05:09:53;101947.75;;;-2.07;96.31
76598;BME280;65486;53.144;18.134;2024-03-08T05:12:20;101946.84;;;-2.04;96.47
76598;BME280;65486;53.144;18.134;2024-03-08T05:14:54;101949.57;;;-2.02;96.43
76598;BME280;65486;53.144;18.134;2024-03-08T05:17:22;101947.50;;;-2.01;96.25
76598;BME280;65486;53.144;18.134;2024-03-08T05:19:56;101950.69;;;-1.98;96.23
76598;BME280;65486;53.144;18.134;2024-03-08T05:22:24;101947.62;;;-1.95;96.13
76598;BME280;65486;53.144;18.134;2024-03-08T05:24:56;101951.05;;;-1.93;96.00
76598;BME280;65486;53.144;18.134;2024-03-08T05:27:22;101947.86;;;-1.89;96.04
76598;BME280;65486;53.144;18.134;2024-03-08T05:29:51;101950.59;;;-1.87;96.33
76598;BME280;65486;53.144;18.134;2024-03-08T05:32:17;101949.89;;;-1.85;96.24
76598;BME280;65486;53.144;18.134;2024-03-08T05:34:43;101952.13;;;-1.81;96.26
76598;BME280;65486;53.144;18.134;2024-03-08T05:37:10;101943.81;;;-1.81;96.12
76598;BME280;65486;53.144;18.134;2024-03-08T05:39:37;101944.86;;;-1.76;96.28
76598;BME280;65486;53.144;18.134;2024-03-08T05:42:03;101948.03;;;-1.73;95.86
76598;BME280;65486;53.144;18.134;2024-03-08T05:44:30;101947.19;;;-1.71;96.04
76598;BME280;65486;53.144;18.134;2024-03-08T05:46:58;101951.08;;;-1.67;96.03
76598;BME280;65486;53.144;18.134;2024-03-08T05:49:28;101943.46;;;-1.64;95.75
76598;BME280;65486;53.144;18.134;2024-03-08T05:51:55;101946.97;;;-1.60;96.13
76598;BME280;65486;53.144;18.134;2024-03-08T05:54:21;101945.63;;;-1.57;96.30
76598;BME280;65486;53.144;18.134;2024-03-08T05:56:51;101945.63;;;-1.53;95.83
76598;BME280;65486;53.144;18.134;2024-03-08T05:59:20;101948.47;;;-1.49;95.79
76598;BME280;65486;53.144;18.134;2024-03-08T06:01:46;101944.40;;;-1.46;95.65
76598;BME280;65486;53.144;18.134;2024-03-08T06:04:13;101944.88;;;-1.43;95.84
76598;BME280;65486;53.144;18.134;2024-03-08T06:06:44;101947.39;;;-1.40;95.64
76598;BME280;65486;53.144;18.134;2024-03-08T06:09:13;101946.59;;;-1.37;95.83
76598;BME280;65486;53.144;18.134;2024-03-08T06:11:43;101946.63;;;-1.33;95.58
76598;BME280;65486;53.144;18.134;2024-03-08T06:14:10;101943.98;;;-1.26;95.49
76598;BME280;65486;53.144;18.134;2024-03-08T06:16:36;101947.06;;;-1.20;95.42
76598;BME280;65486;53.144;18.134;2024-03-08T06:19:04;101945.71;;;-1.12;95.30
76598;BME280;65486;53.144;18.134;2024-03-08T06:21:33;101949.38;;;-1.05;95.01
76598;BME280;65486;53.144;18.134;2024-03-08T06:24:00;101947.89;;;-1.01;94.98
76598;BME280;65486;53.144;18.134;2024-03-08T06:26:27;101952.05;;;-0.99;94.37
76598;BME280;65486;53.144;18.134;2024-03-08T06:28:57;101952.39;;;-0.96;94.38
76598;BME280;65486;53.144;18.134;2024-03-08T06:31:26;101951.63;;;-0.91;94.65
76598;BME280;65486;53.144;18.134;2024-03-08T06:33:56;101951.25;;;-0.88;93.94
76598;BME280;65486;53.144;18.134;2024-03-08T06:36:24;101951.31;;;-0.84;94.37
76598;BME280;65486;53.144;18.134;2024-03-08T06:38:54;101951.30;;;-0.79;94.16
76598;BME280;65486;53.144;18.134;2024-03-08T06:41:21;101948.48;;;-0.74;94.17
76598;BME280;65486;53.144;18.134;2024-03-08T06:43:49;101949.63;;;-0.65;94.10
76598;BME280;65486;53.144;18.134;2024-03-08T06:46:19;101947.67;;;-0.55;93.80
76598;BME280;65486;53.144;18.134;2024-03-08T06:48:47;101950.95;;;-0.49;93.61
76598;BME280;65486;53.144;18.134;2024-03-08T06:51:18;101952.03;;;-0.42;93.55
76598;BME280;65486;53.144;18.134;2024-03-08T06:53:45;101950.21;;;-0.37;93.35
76598;BME280;65486;53.144;18.134;2024-03-08T06:56:12;101949.55;;;-0.31;93.37
76598;BME280;65486;53.144;18.134;2024-03-08T06:58:39;101952.52;;;-0.23;93.06
76598;BME280;65486;53.144;18.134;2024-03-08T07:01:06;101951.14;;;-0.17;92.80
76598;BME280;65486;53.144;18.134;2024-03-08T07:03:33;101949.23;;;-0.12;92.81
76598;BME280;65486;53.144;18.134;2024-03-08T07:06:00;101949.30;;;-0.06;92.62
76598;BME280;65486;53.144;18.134;2024-03-08T07:08:30;101952.80;;;0.06;92.70
76598;BME280;65486;53.144;18.134;2024-03-08T07:10:56;101952.88;;;0.27;92.40
76598;BME280;65486;53.144;18.134;2024-03-08T07:13:24;101949.85;;;0.52;91.94
76598;BME280;65486;53.144;18.134;2024-03-08T07:15:52;101949.09;;;0.69;91.41
76598;BME280;65486;53.144;18.134;2024-03-08T07:18:18;101943.40;;;1.02;90.88
76598;BME280;65486;53.144;18.134;2024-03-08T07:20:52;101940.52;;;1.32;90.41
76598;BME280;65486;53.144;18.134;2024-03-08T07:23:20;101947.20;;;1.51;89.58
76598;BME280;65486;53.144;18.134;2024-03-08T07:26:16;101943.05;;;1.57;88.87
76598;BME280;65486;53.144;18.134;2024-03-08T07:28:44;101942.91;;;1.64;88.23
76598;BME280;65486;53.144;18.134;2024-03-08T07:31:11;101937.90;;;1.90;88.35
76598;BME280;65486;53.144;18.134;2024-03-08T07:33:53;101938.70;;;2.08;87.88
76598;BME280;65486;53.144;18.134;2024-03-08T07:36:21;101938.06;;;2.25;87.67
76598;BME280;65486;53.144;18.134;2024-03-08T07:38:54;101936.97;;;2.58;86.66
76598;BME280;65486;53.144;18.134;2024-03-08T07:41:22;101936.06;;;2.89;86.18
76598;BME280;65486;53.144;18.134;2024-03-08T07:43:51;101934.11;;;3.38;85.12
76598;BME280;65486;53.144;18.134;2024-03-08T07:46:19;101936.48;;;3.75;84.18
76598;BME280;65486;53.144;18.134;2024-03-08T07:48:50;101934.64;;;3.97;83.09
76598;BME280;65486;53.144;18.134;2024-03-08T07:51:19;101935.55;;;4.45;82.38
76598;BME280;65486;53.144;18.134;2024-03-08T07:53:47;101923.48;;;5.44;79.72
76598;BME280;65486;53.144;18.134;2024-03-08T07:56:13;101919.98;;;7.07;75.76
76598;BME280;65486;53.144;18.134;2024-03-08T07:58:45;101917.29;;;8.74;71.87
76598;BME280;65486;53.144;18.134;2024-03-08T08:01:18;101914.29;;;9.46;69.20
76598;BME280;65486;53.144;18.134;2024-03-08T08:03:45;101911.45;;;9.40;67.04
76598;BME280;65486;53.144;18.134;2024-03-08T08:06:11;101913.56;;;8.89;67.54
76598;BME280;65486;53.144;18.134;2024-03-08T08:08:42;101921.95;;;8.38;69.68
76598;BME280;65486;53.144;18.134;2024-03-08T08:11:09;101913.85;;;8.03;70.14
76598;BME280;65486;53.144;18.134;2024-03-08T08:13:37;101916.73;;;7.90;70.30
76598;BME280;65486;53.144;18.134;2024-03-08T08:16:03;101912.95;;;8.43;69.40
76598;BME280;65486;53.144;18.134;2024-03-08T08:18:32;101903.55;;;9.65;66.83
76598;BME280;65486;53.144;18.134;2024-03-08T08:21:00;101904.06;;;10.73;64.53
76598;BME280;65486;53.144;18.134;2024-03-08T08:23:32;101900.65;;;11.69;63.06
76598;BME280;65486;53.144;18.134;2024-03-08T08:25:59;101901.23;;;12.52;61.71
76598;BME280;65486;53.144;18.134;2024-03-08T08:28:31;101894.71;;;13.31;60.05
76598;BME280;65486;53.144;18.134;2024-03-08T08:30:59;101892.77;;;14.03;58.06
76598;BME280;65486;53.144;18.134;2024-03-08T08:33:26;101891.83;;;14.57;57.11
76598;BME280;65486;53.144;18.134;2024-03-08T08:35:53;101888.90;;;15.12;55.30
76598;BME280;65486;53.144;18.134;2024-03-08T08:38:21;101884.10;;;15.63;53.54
76598;BME280;65486;53.144;18.134;2024-03-08T08:40:50;101886.45;;;16.04;52.85
76598;BME280;65486;53.144;18.134;2024-03-08T08:43:16;101884.98;;;16.52;51.85
76598;BME280;65486;53.144;18.134;2024-03-08T08:45:44;101876.73;;;17.08;50.10
76598;BME280;65486;53.144;18.134;2024-03-08T08:48:15;101872.65;;;17.54;48.58
76598;BME280;65486;53.144;18.134;2024-03-08T08:50:44;101875.67;;;17.82;46.71
76598;BME280;65486;53.144;18.134;2024-03-08T08:53:11;101875.08;;;18.10;45.85
76598;BME280;65486;53.144;18.134;2024-03-08T08:55:40;101868.17;;;18.35;45.51
76598;BME280;65486;53.144;18.134;2024-03-08T08:58:08;101870.82;;;18.59;44.77
76598;BME280;65486;53.144;18.134;2024-03-08T09:00:34;101859.21;;;18.81;43.32
76598;BME280;65486;53.144;18.134;2024-03-08T09:03:01;101863.71;;;19.03;42.30
76598;BME280;65486;53.144;18.134;2024-03-08T09:05:28;101865.69;;;19.13;42.26
76598;BME280;65486;53.144;18.134;2024-03-08T09:07:55;101856.37;;;19.34;41.37
76598;BME280;65486;53.144;18.134;2024-03-08T09:10:23;101854.67;;;19.60;40.66
76598;BME280;65486;53.144;18.134;2024-03-08T09:12:53;101857.51;;;19.81;39.55
76598;BME280;65486;53.144;18.134;2024-03-08T09:15:22;101856.15;;;20.08;38.56
76598;BME280;65486;53.144;18.134;2024-03-08T09:17:58;101851.96;;;20.42;37.96
76598;BME280;65486;53.144;18.134;2024-03-08T09:20:26;101852.99;;;20.53;36.93
76598;BME280;65486;53.144;18.134;2024-03-08T09:22:57;101844.45;;;20.67;35.68
76598;BME280;65486;53.144;18.134;2024-03-08T09:25:24;101849.86;;;20.80;35.60
76598;BME280;65486;53.144;18.134;2024-03-08T09:27:51;101847.61;;;20.85;34.89
76598;BME280;65486;53.144;18.134;2024-03-08T09:30:22;101847.20;;;20.77;34.32
76598;BME280;65486;53.144;18.134;2024-03-08T09:32:48;101847.05;;;20.74;34.28
76598;BME280;65486;53.144;18.134;2024-03-08T09:35:17;101847.60;;;20.67;33.24
76598;BME280;65486;53.144;18.134;2024-03-08T09:37:46;101846.23;;;20.71;32.46
76598;BME280;65486;53.144;18.134;2024-03-08T09:40:21;101838.87;;;20.53;32.37
76598;BME280;65486;53.144;18.134;2024-03-08T09:42:51;101840.48;;;20.52;32.41
76598;BME280;65486;53.144;18.134;2024-03-08T09:45:20;101839.27;;;20.69;32.03
76598;BME280;65486;53.144;18.134;2024-03-08T09:47:54;101840.02;;;20.75;31.71
76598;BME280;65486;53.144;18.134;2024-03-08T09:50:22;101836.64;;;20.81;31.04
76598;BME280;65486;53.144;18.134;2024-03-08T09:52:56;101831.27;;;20.78;30.03
76598;BME280;65486;53.144;18.134;2024-03-08T09:55:29;101828.99;;;20.69;29.58
76598;BME280;65486;53.144;18.134;2024-03-08T09:58:11;101827.09;;;20.68;29.11
76598;BME280;65486;53.144;18.134;2024-03-08T10:00:54;101824.95;;;20.84;29.27
76598;BME280;65486;53.144;18.134;2024-03-08T10:03:31;101811.70;;;21.01;28.49
76598;BME280;65486;53.144;18.134;2024-03-08T10:05:59;101817.33;;;21.02;26.97
76598;BME280;65486;53.144;18.134;2024-03-08T10:08:32;101818.52;;;20.88;27.65
76598;BME280;65486;53.144;18.134;2024-03-08T10:11:01;101821.33;;;20.76;27.73
76598;BME280;65486;53.144;18.134;2024-03-08T10:13:29;101812.68;;;20.58;27.94
76598;BME280;65486;53.144;18.134;2024-03-08T10:15:57;101817.41;;;20.59;27.94
76598;BME280;65486;53.144;18.134;2024-03-08T10:18:24;101813.98;;;20.59;27.77
76598;BME280;65486;53.144;18.134;2024-03-08T10:21:06;101813.17;;;20.67;27.47
76598;BME280;65486;53.144;18.134;2024-03-08T10:23:33;101815.80;;;20.78;27.41
76598;BME280;65486;53.144;18.134;2024-03-08T10:28:44;101808.90;;;20.90;26.21
76598;BME280;65486;53.144;18.134;2024-03-08T10:31:11;101806.52;;;20.93;26.14
76598;BME280;65486;53.144;18.134;2024-03-08T10:33:39;101803.66;;;20.92;25.94
76598;BME280;65486;53.144;18.134;2024-03-08T10:36:07;101801.12;;;20.90;26.00
76598;BME280;65486;53.144;18.134;2024-03-08T10:38:38;101794.14;;;21.08;25.52
76598;BME280;65486;53.144;18.134;2024-03-08T10:41:10;101792.62;;;21.17;25.05
76598;BME280;65486;53.144;18.134;2024-03-08T10:46:48;101793.67;;;21.30;24.24
76598;BME280;65486;53.144;18.134;2024-03-08T10:49:26;101792.11;;;21.12;23.88
76598;BME280;65486;53.144;18.134;2024-03-08T10:51:57;101791.86;;;20.90;24.27
76598;BME280;65486;53.144;18.134;2024-03-08T10:54:26;101791.80;;;20.88;24.43
76598;BME280;65486;53.144;18.134;2024-03-08T10:56:54;101788.59;;;20.88;24.18
76598;BME280;65486;53.144;18.134;2024-03-08T10:59:21;101788.27;;;20.27;24.54
76598;BME280;65486;53.144;18.134;2024-03-08T11:01:49;101782.20;;;19.14;25.40
76598;BME280;65486;53.144;18.134;2024-03-08T11:04:16;101785.35;;;18.13;25.95
76598;BME280;65486;53.144;18.134;2024-03-08T11:06:51;101787.19;;;17.09;26.38
76598;BME280;65486;53.144;18.134;2024-03-08T11:09:36;101789.20;;;16.09;26.40
76598;BME280;65486;53.144;18.134;2024-03-08T11:14:50;101785.71;;;14.18;28.46
76598;BME280;65486;53.144;18.134;2024-03-08T11:17:21;101784.16;;;13.66;29.30
76598;BME280;65486;53.144;18.134;2024-03-08T11:19:49;101786.95;;;13.21;30.05
76598;BME280;65486;53.144;18.134;2024-03-08T11:22:38;101783.16;;;12.71;31.74
76598;BME280;65486;53.144;18.134;2024-03-08T11:25:09;101783.92;;;12.10;33.01
76598;BME280;65486;53.144;18.134;2024-03-08T11:27:39;101789.27;;;11.67;33.92
76598;BME280;65486;53.144;18.134;2024-03-08T11:30:22;101782.70;;;11.20;34.49
76598;BME280;65486;53.144;18.134;2024-03-08T11:32:50;101777.94;;;10.89;35.14
76598;BME280;65486;53.144;18.134;2024-03-08T11:35:21;101778.46;;;10.62;35.94
76598;BME280;65486;53.144;18.134;2024-03-08T11:37:49;101780.21;;;10.30;35.98
76598;BME280;65486;53.144;18.134;2024-03-08T11:40:16;101773.89;;;10.16;36.54
76598;BME280;65486;53.144;18.134;2024-03-08T11:42:46;101767.81;;;10.03;36.59
76598;BME280;65486;53.144;18.134;2024-03-08T11:45:17;101760.75;;;9.91;37.07
76598;BME280;65486;53.144;18.134;2024-03-08T11:47:44;101760.18;;;9.78;37.51
76598;BME280;65486;53.144;18.134;2024-03-08T11:50:15;101759.76;;;9.65;37.51
76598;BME280;65486;53.144;18.134;2024-03-08T11:52:43;101752.85;;;9.48;37.81
76598;BME280;65486;53.144;18.134;2024-03-08T11:55:11;101754.12;;;9.37;38.31
76598;BME280;65486;53.144;18.134;2024-03-08T11:57:38;101748.91;;;9.35;38.70
76598;BME280;65486;53.144;18.134;2024-03-08T12:00:06;101746.95;;;9.36;39.13
76598;BME280;65486;53.144;18.134;2024-03-08T12:02:39;101737.08;;;9.30;39.88
76598;BME280;65486;53.144;18.134;2024-03-08T12:05:08;101739.55;;;9.25;39.88
76598;BME280;65486;53.144;18.134;2024-03-08T12:07:42;101737.39;;;9.19;40.19
76598;BME280;65486;53.144;18.134;2024-03-08T12:10:21;101734.65;;;9.15;40.65
76598;BME280;65486;53.144;18.134;2024-03-08T12:12:52;101731.55;;;9.10;41.03
76598;BME280;65486;53.144;18.134;2024-03-08T12:15:21;101730.04;;;9.06;41.34
76598;BME280;65486;53.144;18.134;2024-03-08T12:17:53;101723.06;;;8.97;41.62
76598;BME280;65486;53.144;18.134;2024-03-08T12:20:25;101723.32;;;8.89;41.78
76598;BME280;65486;53.144;18.134;2024-03-08T12:22:55;101724.11;;;8.83;41.77
76598;BME280;65486;53.144;18.134;2024-03-08T12:25:31;101721.44;;;8.69;41.90
76598;BME280;65486;53.144;18.134;2024-03-08T12:28:12;101722.11;;;8.53;42.25
76598;BME280;65486;53.144;18.134;2024-03-08T12:30:47;101719.30;;;8.41;43.01
76598;BME280;65486;53.144;18.134;2024-03-08T12:33:14;101717.98;;;8.31;42.76
76598;BME280;65486;53.144;18.134;2024-03-08T12:35:41;101714.35;;;8.26;42.57
76598;BME280;65486;53.144;18.134;2024-03-08T12:38:08;101715.37;;;8.24;43.58
76598;BME280;65486;53.144;18.134;2024-03-08T12:40:35;101710.95;;;8.18;44.52
76598;BME280;65486;53.144;18.134;2024-03-08T12:43:06;101700.52;;;8.04;44.27
76598;BME280;65486;53.144;18.134;2024-03-08T12:45:35;101709.02;;;8.05;44.62
76598;BME280;65486;53.144;18.134;2024-03-08T12:48:12;101696.91;;;8.03;44.72
76598;BME280;65486;53.144;18.134;2024-03-08T12:50:43;101697.55;;;8.03;44.93
76598;BME280;65486;53.144;18.134;2024-03-08T12:53:14;101695.03;;;8.04;45.25
76598;BME280;65486;53.144;18.134;2024-03-08T12:55:40;101685.23;;;8.01;45.41
76598;BME280;65486;53.144;18.134;2024-03-08T12:58:07;101686.75;;;7.96;45.68
76598;BME280;65486;53.144;18.134;2024-03-08T13:00:37;101682.56;;;7.96;45.85
76598;BME280;65486;53.144;18.134;2024-03-08T13:03:09;101683.79;;;7.98;46.13